sensor_id;sensor_type;location;lat;lon;timestamp;P1;durP1;ratioP1;P2;durP2;ratioP2
4650;SDS011;2338;49.602;8.722;2022-07-23T00:02:21;10.33;;;8.83;;
4650;SDS011;2338;49.602;8.722;2022-07-23T00:05:07;9.30;;;8.23;;
4650;SDS011;2338;49.602;8.722;2022-07-23T00:07:54;11.13;;;8.73;;
4650;SDS011;2338;49.602;8.722;2022-07-23T00:10:40;9.07;;;8.17;;
4650;SDS011;2338;49.602;8.722;2022-07-23T00:13:26;8.83;;;8.03;;
4650;SDS011;2338;49.602;8.722;2022-07-23T00:16:12;15.70;;;9.57;;
4650;SDS011;2338;49.602;8.722;2022-07-23T00:18:57;9.50;;;8.60;;
4650;SDS011;2338;49.602;8.722;2022-07-23T00:21:45;15.10;;;9.10;;
4650;SDS011;2338;49.602;8.722;2022-07-23T00:24:32;12.90;;;8.70;;
4650;SDS011;2338;49.602;8.722;2022-07-23T00:27:17;11.93;;;9.30;;
4650;SDS011;2338;49.602;8.722;2022-07-23T00:30:04;11.83;;;8.70;;
4650;SDS011;2338;49.602;8.722;2022-07-23T00:32:51;10.73;;;9.10;;
4650;SDS011;2338;49.602;8.722;2022-07-23T00:35:38;10.87;;;9.50;;
4650;SDS011;2338;49.602;8.722;2022-07-23T00:38:25;12.20;;;8.57;;
4650;SDS011;2338;49.602;8.722;2022-07-23T00:41:12;13.63;;;8.33;;
4650;SDS011;2338;49.602;8.722;2022-07-23T00:46:59;11.47;;;8.43;;
4650;SDS011;2338;49.602;8.722;2022-07-23T00:49:45;10.40;;;9.17;;
4650;SDS011;2338;49.602;8.722;2022-07-23T00:52:31;11.77;;;8.93;;
4650;SDS011;2338;49.602;8.722;2022-07-23T00:55:18;10.97;;;9.40;;
4650;SDS011;2338;49.602;8.722;2022-07-23T00:58:05;10.13;;;9.10;;
4650;SDS011;2338;49.602;8.722;2022-07-23T01:00:51;9.10;;;8.10;;
4650;SDS011;2338;49.602;8.722;2022-07-23T01:03:37;12.00;;;9.33;;
4650;SDS011;2338;49.602;8.722;2022-07-23T01:06:22;11.30;;;9.90;;
4650;SDS011;2338;49.602;8.722;2022-07-23T01:09:08;9.67;;;8.67;;
4650;SDS011;2338;49.602;8.722;2022-07-23T01:11:54;13.50;;;9.90;;
4650;SDS011;2338;49.602;8.722;2022-07-23T01:14:42;15.83;;;9.40;;
4650;SDS011;2338;49.602;8.722;2022-07-23T01:17:27;10.83;;;9.17;;
4650;SDS011;2338;49.602;8.722;2022-07-23T01:20:13;10.17;;;8.50;;
4650;SDS011;2338;49.602;8.722;2022-07-23T01:23:01;9.63;;;8.67;;
4650;SDS011;2338;49.602;8.722;2022-07-23T01:25:52;11.07;;;8.97;;
4650;SDS011;2338;49.602;8.722;2022-07-23T01:28:38;17.67;;;10.30;;
4650;SDS011;2338;49.602;8.722;2022-07-23T01:31:23;13.70;;;9.17;;
4650;SDS011;2338;49.602;8.722;2022-07-23T01:34:09;9.63;;;8.60;;
4650;SDS011;2338;49.602;8.722;2022-07-23T01:36:55;14.23;;;9.90;;
4650;SDS011;2338;49.602;8.722;2022-07-23T01:39:42;10.40;;;9.30;;
4650;SDS011;2338;49.602;8.722;2022-07-23T01:42:28;14.73;;;9.90;;
4650;SDS011;2338;49.602;8.722;2022-07-23T01:45:13;11.70;;;9.80;;
4650;SDS011;2338;49.602;8.722;2022-07-23T01:47:59;9.53;;;8.53;;
4650;SDS011;2338;49.602;8.722;2022-07-23T01:50:45;10.30;;;9.40;;
4650;SDS011;2338;49.602;8.722;2022-07-23T01:53:31;10.50;;;9.50;;
4650;SDS011;2338;49.602;8.722;2022-07-23T01:56:18;11.63;;;8.60;;
4650;SDS011;2338;49.602;8.722;2022-07-23T01:59:04;11.20;;;9.00;;
4650;SDS011;2338;49.602;8.722;2022-07-23T02:01:50;11.97;;;9.10;;
4650;SDS011;2338;49.602;8.722;2022-07-23T02:04:36;10.30;;;9.07;;
4650;SDS011;2338;49.602;8.722;2022-07-23T02:07:21;11.20;;;8.43;;
4650;SDS011;2338;49.602;8.722;2022-07-23T02:10:07;14.90;;;9.40;;
4650;SDS011;2338;49.602;8.722;2022-07-23T02:12:54;12.80;;;8.97;;
4650;SDS011;2338;49.602;8.722;2022-07-23T02:15:40;9.63;;;8.70;;
4650;SDS011;2338;49.602;8.722;2022-07-23T02:18:26;13.37;;;9.20;;
4650;SDS011;2338;49.602;8.722;2022-07-23T02:21:12;8.80;;;7.90;;
4650;SDS011;2338;49.602;8.722;2022-07-23T02:23:57;9.10;;;8.20;;
4650;SDS011;2338;49.602;8.722;2022-07-23T02:26:43;11.73;;;7.90;;
4650;SDS011;2338;49.602;8.722;2022-07-23T02:29:30;11.80;;;8.70;;
4650;SDS011;2338;49.602;8.722;2022-07-23T02:32:16;11.43;;;8.93;;
4650;SDS011;2338;49.602;8.722;2022-07-23T02:35:01;9.77;;;8.53;;
4650;SDS011;2338;49.602;8.722;2022-07-23T02:37:48;11.60;;;8.70;;
4650;SDS011;2338;49.602;8.722;2022-07-23T02:40:33;9.90;;;8.60;;
4650;SDS011;2338;49.602;8.722;2022-07-23T02:43:18;10.30;;;8.53;;
4650;SDS011;2338;49.602;8.722;2022-07-23T02:46:06;12.27;;;9.07;;
4650;SDS011;2338;49.602;8.722;2022-07-23T02:48:51;8.47;;;7.63;;
4650;SDS011;2338;49.602;8.722;2022-07-23T02:51:37;11.13;;;8.73;;
4650;SDS011;2338;49.602;8.722;2022-07-23T02:54:23;8.73;;;7.83;;
4650;SDS011;2338;49.602;8.722;2022-07-23T02:57:08;8.90;;;8.00;;
4650;SDS011;2338;49.602;8.722;2022-07-23T02:59:54;9.77;;;8.17;;
4650;SDS011;2338;49.602;8.722;2022-07-23T03:02:41;9.60;;;8.60;;
4650;SDS011;2338;49.602;8.722;2022-07-23T03:05:26;9.00;;;8.17;;
4650;SDS011;2338;49.602;8.722;2022-07-23T03:08:12;9.57;;;8.67;;
4650;SDS011;2338;49.602;8.722;2022-07-23T03:10:57;13.50;;;8.37;;
4650;SDS011;2338;49.602;8.722;2022-07-23T03:13:43;10.10;;;8.57;;
4650;SDS011;2338;49.602;8.722;2022-07-23T03:16:28;10.23;;;8.47;;
4650;SDS011;2338;49.602;8.722;2022-07-23T03:19:15;9.50;;;8.50;;
4650;SDS011;2338;49.602;8.722;2022-07-23T03:22:01;15.10;;;8.90;;
4650;SDS011;2338;49.602;8.722;2022-07-23T03:24:46;9.13;;;7.97;;
4650;SDS011;2338;49.602;8.722;2022-07-23T03:27:41;10.07;;;8.80;;
4650;SDS011;2338;49.602;8.722;2022-07-23T03:30:28;11.77;;;7.53;;
4650;SDS011;2338;49.602;8.722;2022-07-23T03:33:14;9.63;;;8.00;;
4650;SDS011;2338;49.602;8.722;2022-07-23T03:36:02;11.27;;;8.30;;
4650;SDS011;2338;49.602;8.722;2022-07-23T03:38:48;9.83;;;8.03;;
4650;SDS011;2338;49.602;8.722;2022-07-23T03:41:34;12.73;;;8.30;;
4650;SDS011;2338;49.602;8.722;2022-07-23T03:44:19;13.90;;;8.73;;
4650;SDS011;2338;49.602;8.722;2022-07-23T03:47:05;11.40;;;8.67;;
4650;SDS011;2338;49.602;8.722;2022-07-23T03:49:51;11.87;;;8.20;;
4650;SDS011;2338;49.602;8.722;2022-07-23T03:52:38;9.27;;;8.30;;
4650;SDS011;2338;49.602;8.722;2022-07-23T03:55:24;9.77;;;7.70;;
4650;SDS011;2338;49.602;8.722;2022-07-23T03:58:09;10.47;;;8.27;;
4650;SDS011;2338;49.602;8.722;2022-07-23T04:00:55;10.93;;;8.70;;
4650;SDS011;2338;49.602;8.722;2022-07-23T04:03:41;10.13;;;9.13;;
4650;SDS011;2338;49.602;8.722;2022-07-23T04:06:26;11.43;;;8.70;;
4650;SDS011;2338;49.602;8.722;2022-07-23T04:09:13;9.00;;;8.10;;
4650;SDS011;2338;49.602;8.722;2022-07-23T04:11:59;10.30;;;8.83;;
4650;SDS011;2338;49.602;8.722;2022-07-23T04:14:45;10.93;;;8.73;;
4650;SDS011;2338;49.602;8.722;2022-07-23T04:17:31;11.63;;;9.30;;
4650;SDS011;2338;49.602;8.722;2022-07-23T04:20:16;10.57;;;9.50;;
4650;SDS011;2338;49.602;8.722;2022-07-23T04:23:02;11.37;;;10.00;;
4650;SDS011;2338;49.602;8.722;2022-07-23T04:25:49;11.00;;;9.13;;
4650;SDS011;2338;49.602;8.722;2022-07-23T04:28:35;12.23;;;9.70;;
4650;SDS011;2338;49.602;8.722;2022-07-23T04:31:20;8.73;;;7.93;;
4650;SDS011;2338;49.602;8.722;2022-07-23T04:34:06;10.87;;;9.80;;
4650;SDS011;2338;49.602;8.722;2022-07-23T04:36:52;9.50;;;8.50;;
4650;SDS011;2338;49.602;8.722;2022-07-23T04:39:38;12.23;;;9.73;;
4650;SDS011;2338;49.602;8.722;2022-07-23T04:42:24;10.23;;;8.80;;
4650;SDS011;2338;49.602;8.722;2022-07-23T04:45:10;11.20;;;9.23;;
4650;SDS011;2338;49.602;8.722;2022-07-23T04:47:56;12.57;;;8.93;;
4650;SDS011;2338;49.602;8.722;2022-07-23T04:50:41;9.70;;;8.70;;
4650;SDS011;2338;49.602;8.722;2022-07-23T04:53:27;11.53;;;8.90;;
4650;SDS011;2338;49.602;8.722;2022-07-23T04:56:13;9.40;;;8.50;;
4650;SDS011;2338;49.602;8.722;2022-07-23T04:59:00;9.80;;;8.80;;
4650;SDS011;2338;49.602;8.722;2022-07-23T05:01:46;19.07;;;9.83;;
4650;SDS011;2338;49.602;8.722;2022-07-23T05:04:32;9.70;;;8.50;;
4650;SDS011;2338;49.602;8.722;2022-07-23T05:07:17;11.10;;;8.73;;
4650;SDS011;2338;49.602;8.722;2022-07-23T05:10:03;13.53;;;9.13;;
4650;SDS011;2338;49.602;8.722;2022-07-23T05:12:49;13.50;;;8.50;;
4650;SDS011;2338;49.602;8.722;2022-07-23T05:15:36;12.30;;;9.57;;
4650;SDS011;2338;49.602;8.722;2022-07-23T05:18:22;10.50;;;9.33;;
4650;SDS011;2338;49.602;8.722;2022-07-23T05:21:08;16.57;;;8.87;;
4650;SDS011;2338;49.602;8.722;2022-07-23T05:23:53;9.87;;;8.57;;
4650;SDS011;2338;49.602;8.722;2022-07-23T05:26:39;13.87;;;10.50;;
4650;SDS011;2338;49.602;8.722;2022-07-23T05:29:25;9.67;;;8.43;;
4650;SDS011;2338;49.602;8.722;2022-07-23T05:32:12;10.00;;;9.00;;
4650;SDS011;2338;49.602;8.722;2022-07-23T05:34:58;10.87;;;8.30;;
4650;SDS011;2338;49.602;8.722;2022-07-23T05:37:43;11.57;;;9.30;;
4650;SDS011;2338;49.602;8.722;2022-07-23T05:40:29;12.10;;;9.50;;
4650;SDS011;2338;49.602;8.722;2022-07-23T05:43:16;10.17;;;9.17;;
4650;SDS011;2338;49.602;8.722;2022-07-23T05:46:02;11.50;;;9.23;;
4650;SDS011;2338;49.602;8.722;2022-07-23T05:48:49;11.10;;;9.27;;
4650;SDS011;2338;49.602;8.722;2022-07-23T05:51:34;10.80;;;9.03;;
4650;SDS011;2338;49.602;8.722;2022-07-23T05:54:20;13.10;;;9.10;;
4650;SDS011;2338;49.602;8.722;2022-07-23T05:57:05;12.50;;;8.67;;
4650;SDS011;2338;49.602;8.722;2022-07-23T05:59:51;13.23;;;9.73;;
4650;SDS011;2338;49.602;8.722;2022-07-23T06:02:37;10.70;;;9.60;;
4650;SDS011;2338;49.602;8.722;2022-07-23T06:05:24;12.97;;;8.67;;
4650;SDS011;2338;49.602;8.722;2022-07-23T06:08:10;13.10;;;9.23;;
4650;SDS011;2338;49.602;8.722;2022-07-23T06:10:55;10.47;;;9.23;;
4650;SDS011;2338;49.602;8.722;2022-07-23T06:13:41;19.43;;;9.30;;
4650;SDS011;2338;49.602;8.722;2022-07-23T06:16:26;9.93;;;8.43;;
4650;SDS011;2338;49.602;8.722;2022-07-23T06:19:12;12.33;;;9.23;;
4650;SDS011;2338;49.602;8.722;2022-07-23T06:21:59;12.67;;;9.60;;
4650;SDS011;2338;49.602;8.722;2022-07-23T06:24:45;10.30;;;9.30;;
4650;SDS011;2338;49.602;8.722;2022-07-23T06:27:30;11.33;;;9.60;;
4650;SDS011;2338;49.602;8.722;2022-07-23T06:30:16;12.10;;;8.90;;
4650;SDS011;2338;49.602;8.722;2022-07-23T06:33:02;10.23;;;9.20;;
4650;SDS011;2338;49.602;8.722;2022-07-23T06:35:48;11.23;;;10.13;;
4650;SDS011;2338;49.602;8.722;2022-07-23T06:38:35;15.70;;;10.17;;
4650;SDS011;2338;49.602;8.722;2022-07-23T06:41:21;12.93;;;10.97;;
4650;SDS011;2338;49.602;8.722;2022-07-23T06:44:07;11.73;;;10.63;;
4650;SDS011;2338;49.602;8.722;2022-07-23T06:46:53;17.23;;;10.60;;
4650;SDS011;2338;49.602;8.722;2022-07-23T06:49:38;11.23;;;10.03;;
4650;SDS011;2338;49.602;8.722;2022-07-23T06:52:25;13.10;;;10.27;;
4650;SDS011;2338;49.602;8.722;2022-07-23T06:55:12;17.73;;;11.70;;
4650;SDS011;2338;49.602;8.722;2022-07-23T06:57:58;13.93;;;10.43;;
4650;SDS011;2338;49.602;8.722;2022-07-23T07:00:43;13.53;;;10.97;;
4650;SDS011;2338;49.602;8.722;2022-07-23T07:03:28;11.40;;;10.20;;
4650;SDS011;2338;49.602;8.722;2022-07-23T07:06:14;11.60;;;10.00;;
4650;SDS011;2338;49.602;8.722;2022-07-23T07:09:00;11.47;;;10.37;;
4650;SDS011;2338;49.602;8.722;2022-07-23T07:11:47;11.93;;;10.70;;
4650;SDS011;2338;49.602;8.722;2022-07-23T07:14:33;12.67;;;11.30;;
4650;SDS011;2338;49.602;8.722;2022-07-23T07:17:18;12.23;;;9.57;;
4650;SDS011;2338;49.602;8.722;2022-07-23T07:20:04;13.27;;;11.73;;
4650;SDS011;2338;49.602;8.722;2022-07-23T07:22:50;11.70;;;10.40;;
4650;SDS011;2338;49.602;8.722;2022-07-23T07:25:36;11.83;;;10.60;;
4650;SDS011;2338;49.602;8.722;2022-07-23T07:28:23;12.03;;;10.70;;
4650;SDS011;2338;49.602;8.722;2022-07-23T07:31:09;13.60;;;10.67;;
4650;SDS011;2338;49.602;8.722;2022-07-23T07:33:55;12.03;;;10.67;;
4650;SDS011;2338;49.602;8.722;2022-07-23T07:36:41;13.03;;;11.50;;
4650;SDS011;2338;49.602;8.722;2022-07-23T07:39:27;10.97;;;9.90;;
4650;SDS011;2338;49.602;8.722;2022-07-23T07:42:12;16.10;;;10.73;;
4650;SDS011;2338;49.602;8.722;2022-07-23T07:45:00;12.93;;;10.67;;
4650;SDS011;2338;49.602;8.722;2022-07-23T07:47:45;13.73;;;9.70;;
4650;SDS011;2338;49.602;8.722;2022-07-23T07:50:31;13.37;;;11.53;;
4650;SDS011;2338;49.602;8.722;2022-07-23T07:53:16;17.47;;;11.20;;
4650;SDS011;2338;49.602;8.722;2022-07-23T07:56:02;11.77;;;10.60;;
4650;SDS011;2338;49.602;8.722;2022-07-23T07:58:48;17.00;;;12.40;;
4650;SDS011;2338;49.602;8.722;2022-07-23T08:01:35;13.13;;;11.77;;
4650;SDS011;2338;49.602;8.722;2022-07-23T08:04:21;17.10;;;11.97;;
4650;SDS011;2338;49.602;8.722;2022-07-23T08:07:06;12.60;;;10.70;;
4650;SDS011;2338;49.602;8.722;2022-07-23T08:09:52;13.50;;;10.23;;
4650;SDS011;2338;49.602;8.722;2022-07-23T08:12:38;11.60;;;10.40;;
4650;SDS011;2338;49.602;8.722;2022-07-23T08:15:29;12.20;;;11.00;;
4650;SDS011;2338;49.602;8.722;2022-07-23T08:18:16;11.50;;;9.00;;
4650;SDS011;2338;49.602;8.722;2022-07-23T08:21:02;21.57;;;12.63;;
4650;SDS011;2338;49.602;8.722;2022-07-23T08:23:49;10.77;;;9.63;;
4650;SDS011;2338;49.602;8.722;2022-07-23T08:26:35;11.17;;;10.07;;
4650;SDS011;2338;49.602;8.722;2022-07-23T08:29:20;10.47;;;9.17;;
4650;SDS011;2338;49.602;8.722;2022-07-23T08:32:06;12.90;;;9.47;;
4650;SDS011;2338;49.602;8.722;2022-07-23T08:34:53;20.50;;;10.20;;
4650;SDS011;2338;49.602;8.722;2022-07-23T08:37:39;11.10;;;9.70;;
4650;SDS011;2338;49.602;8.722;2022-07-23T08:40:25;11.23;;;9.20;;
4650;SDS011;2338;49.602;8.722;2022-07-23T08:43:13;11.13;;;9.40;;
4650;SDS011;2338;49.602;8.722;2022-07-23T08:46:00;11.10;;;9.50;;
4650;SDS011;2338;49.602;8.722;2022-07-23T08:48:47;16.70;;;10.70;;
4650;SDS011;2338;49.602;8.722;2022-07-23T08:51:35;17.53;;;9.30;;
4650;SDS011;2338;49.602;8.722;2022-07-23T08:54:20;10.57;;;9.47;;
4650;SDS011;2338;49.602;8.722;2022-07-23T08:57:07;10.00;;;9.10;;
4650;SDS011;2338;49.602;8.722;2022-07-23T08:59:52;9.70;;;8.70;;
4650;SDS011;2338;49.602;8.722;2022-07-23T09:02:39;11.53;;;8.13;;
4650;SDS011;2338;49.602;8.722;2022-07-23T09:05:25;12.00;;;10.33;;
4650;SDS011;2338;49.602;8.722;2022-07-23T09:08:13;11.37;;;9.33;;
4650;SDS011;2338;49.602;8.722;2022-07-23T09:11:00;13.57;;;8.60;;
4650;SDS011;2338;49.602;8.722;2022-07-23T09:13:46;10.13;;;9.10;;
4650;SDS011;2338;49.602;8.722;2022-07-23T09:16:33;10.70;;;9.47;;
4650;SDS011;2338;49.602;8.722;2022-07-23T09:19:18;13.03;;;10.00;;
4650;SDS011;2338;49.602;8.722;2022-07-23T09:22:16;9.70;;;8.60;;
4650;SDS011;2338;49.602;8.722;2022-07-23T09:25:08;15.60;;;9.60;;
4650;SDS011;2338;49.602;8.722;2022-07-23T09:27:55;10.43;;;8.80;;
4650;SDS011;2338;49.602;8.722;2022-07-23T09:30:44;9.63;;;8.20;;
4650;SDS011;2338;49.602;8.722;2022-07-23T09:33:33;12.73;;;8.43;;
4650;SDS011;2338;49.602;8.722;2022-07-23T09:36:28;9.93;;;8.70;;
4650;SDS011;2338;49.602;8.722;2022-07-23T09:39:15;10.50;;;8.80;;
4650;SDS011;2338;49.602;8.722;2022-07-23T09:42:13;10.00;;;8.90;;
4650;SDS011;2338;49.602;8.722;2022-07-23T09:45:00;9.60;;;8.37;;
4650;SDS011;2338;49.602;8.722;2022-07-23T09:47:46;11.13;;;8.30;;
4650;SDS011;2338;49.602;8.722;2022-07-23T09:50:32;8.57;;;7.67;;
4650;SDS011;2338;49.602;8.722;2022-07-23T09:53:23;11.60;;;8.33;;
4650;SDS011;2338;49.602;8.722;2022-07-23T09:56:11;10.60;;;8.10;;
4650;SDS011;2338;49.602;8.722;2022-07-23T09:58:59;12.60;;;8.23;;
4650;SDS011;2338;49.602;8.722;2022-07-23T10:01:50;10.23;;;8.20;;
4650;SDS011;2338;49.602;8.722;2022-07-23T10:04:36;9.93;;;8.90;;
4650;SDS011;2338;49.602;8.722;2022-07-23T10:07:22;9.80;;;7.73;;
4650;SDS011;2338;49.602;8.722;2022-07-23T10:10:10;8.37;;;7.57;;
4650;SDS011;2338;49.602;8.722;2022-07-23T10:12:58;8.50;;;7.60;;
4650;SDS011;2338;49.602;8.722;2022-07-23T10:16:03;9.13;;;8.23;;
4650;SDS011;2338;49.602;8.722;2022-07-23T10:18:49;10.57;;;8.23;;
4650;SDS011;2338;49.602;8.722;2022-07-23T10:21:37;10.53;;;8.80;;
4650;SDS011;2338;49.602;8.722;2022-07-23T10:27:55;8.23;;;7.43;;
4650;SDS011;2338;49.602;8.722;2022-07-23T10:30:52;8.60;;;7.70;;
4650;SDS011;2338;49.602;8.722;2022-07-23T10:33:51;7.90;;;7.03;;
4650;SDS011;2338;49.602;8.722;2022-07-23T10:36:42;12.70;;;7.83;;
4650;SDS011;2338;49.602;8.722;2022-07-23T10:39:32;9.93;;;7.60;;
4650;SDS011;2338;49.602;8.722;2022-07-23T10:42:19;8.30;;;7.40;;
4650;SDS011;2338;49.602;8.722;2022-07-23T10:48:14;11.60;;;7.20;;
4650;SDS011;2338;49.602;8.722;2022-07-23T10:51:08;9.83;;;8.37;;
4650;SDS011;2338;49.602;8.722;2022-07-23T10:53:57;7.97;;;7.17;;
4650;SDS011;2338;49.602;8.722;2022-07-23T10:56:50;9.80;;;7.57;;
4650;SDS011;2338;49.602;8.722;2022-07-23T11:02:56;8.10;;;7.33;;
4650;SDS011;2338;49.602;8.722;2022-07-23T11:05:43;9.93;;;8.70;;
4650;SDS011;2338;49.602;8.722;2022-07-23T11:08:31;10.53;;;8.10;;
4650;SDS011;2338;49.602;8.722;2022-07-23T11:11:17;11.13;;;7.47;;
4650;SDS011;2338;49.602;8.722;2022-07-23T11:14:03;8.80;;;7.90;;
4650;SDS011;2338;49.602;8.722;2022-07-23T11:16:48;9.20;;;7.80;;
4650;SDS011;2338;49.602;8.722;2022-07-23T11:23:01;8.83;;;7.57;;
4650;SDS011;2338;49.602;8.722;2022-07-23T11:25:49;11.03;;;7.30;;
4650;SDS011;2338;49.602;8.722;2022-07-23T11:28:34;9.80;;;7.80;;
4650;SDS011;2338;49.602;8.722;2022-07-23T11:31:20;9.23;;;7.50;;
4650;SDS011;2338;49.602;8.722;2022-07-23T11:37:26;18.43;;;9.67;;
4650;SDS011;2338;49.602;8.722;2022-07-23T11:40:16;16.67;;;8.30;;
4650;SDS011;2338;49.602;8.722;2022-07-23T11:43:04;10.47;;;7.87;;
4650;SDS011;2338;49.602;8.722;2022-07-23T11:45:52;9.37;;;8.33;;
4650;SDS011;2338;49.602;8.722;2022-07-23T11:48:39;9.57;;;8.33;;
4650;SDS011;2338;49.602;8.722;2022-07-23T11:51:25;10.33;;;8.50;;
4650;SDS011;2338;49.602;8.722;2022-07-23T11:54:11;10.40;;;8.20;;
4650;SDS011;2338;49.602;8.722;2022-07-23T11:56:56;11.83;;;8.53;;
4650;SDS011;2338;49.602;8.722;2022-07-23T11:59:44;9.60;;;8.07;;
4650;SDS011;2338;49.602;8.722;2022-07-23T12:02:32;8.50;;;7.60;;
4650;SDS011;2338;49.602;8.722;2022-07-23T12:05:18;8.53;;;7.63;;
4650;SDS011;2338;49.602;8.722;2022-07-23T12:08:06;9.40;;;8.20;;
4650;SDS011;2338;49.602;8.722;2022-07-23T12:10:53;10.00;;;7.80;;
4650;SDS011;2338;49.602;8.722;2022-07-23T12:13:38;9.47;;;8.43;;
4650;SDS011;2338;49.602;8.722;2022-07-23T12:16:25;9.23;;;8.10;;
4650;SDS011;2338;49.602;8.722;2022-07-23T12:19:11;9.00;;;8.10;;
4650;SDS011;2338;49.602;8.722;2022-07-23T12:21:57;8.30;;;7.47;;
4650;SDS011;2338;49.602;8.722;2022-07-23T12:24:54;14.27;;;8.00;;
4650;SDS011;2338;49.602;8.722;2022-07-23T12:27:41;9.57;;;7.50;;
4650;SDS011;2338;49.602;8.722;2022-07-23T12:30:28;8.13;;;7.30;;
4650;SDS011;2338;49.602;8.722;2022-07-23T12:33:21;10.03;;;7.80;;
4650;SDS011;2338;49.602;8.722;2022-07-23T12:36:09;11.27;;;7.97;;
4650;SDS011;2338;49.602;8.722;2022-07-23T12:38:55;8.27;;;7.47;;
4650;SDS011;2338;49.602;8.722;2022-07-23T12:41:51;10.20;;;7.90;;
4650;SDS011;2338;49.602;8.722;2022-07-23T12:44:37;12.20;;;7.70;;
4650;SDS011;2338;49.602;8.722;2022-07-23T12:47:22;11.03;;;9.00;;
4650;SDS011;2338;49.602;8.722;2022-07-23T12:50:09;7.70;;;7.00;;
4650;SDS011;2338;49.602;8.722;2022-07-23T12:53:16;12.60;;;8.10;;
4650;SDS011;2338;49.602;8.722;2022-07-23T12:56:04;10.17;;;7.43;;
4650;SDS011;2338;49.602;8.722;2022-07-23T12:58:52;9.40;;;7.13;;
4650;SDS011;2338;49.602;8.722;2022-07-23T13:01:40;7.93;;;7.10;;
4650;SDS011;2338;49.602;8.722;2022-07-23T13:04:27;9.93;;;8.13;;
4650;SDS011;2338;49.602;8.722;2022-07-23T13:07:14;10.63;;;7.67;;
4650;SDS011;2338;49.602;8.722;2022-07-23T13:09:59;10.43;;;8.40;;
4650;SDS011;2338;49.602;8.722;2022-07-23T13:12:45;8.30;;;7.47;;
4650;SDS011;2338;49.602;8.722;2022-07-23T13:15:30;8.40;;;7.50;;
4650;SDS011;2338;49.602;8.722;2022-07-23T13:18:16;10.20;;;7.57;;
4650;SDS011;2338;49.602;8.722;2022-07-23T13:21:02;11.37;;;8.07;;
4650;SDS011;2338;49.602;8.722;2022-07-23T13:23:50;8.37;;;7.53;;
4650;SDS011;2338;49.602;8.722;2022-07-23T13:26:36;8.90;;;8.00;;
4650;SDS011;2338;49.602;8.722;2022-07-23T13:29:22;8.20;;;7.20;;
4650;SDS011;2338;49.602;8.722;2022-07-23T13:32:08;11.43;;;8.00;;
4650;SDS011;2338;49.602;8.722;2022-07-23T13:34:54;9.10;;;7.23;;
4650;SDS011;2338;49.602;8.722;2022-07-23T13:37:39;10.07;;;8.77;;
4650;SDS011;2338;49.602;8.722;2022-07-23T13:40:27;9.20;;;8.00;;
4650;SDS011;2338;49.602;8.722;2022-07-23T13:43:13;8.47;;;7.10;;
4650;SDS011;2338;49.602;8.722;2022-07-23T13:46:00;9.13;;;8.23;;
4650;SDS011;2338;49.602;8.722;2022-07-23T13:48:46;9.10;;;8.20;;
4650;SDS011;2338;49.602;8.722;2022-07-23T13:51:32;8.77;;;7.33;;
4650;SDS011;2338;49.602;8.722;2022-07-23T13:54:18;8.80;;;7.27;;
4650;SDS011;2338;49.602;8.722;2022-07-23T13:57:05;13.50;;;8.17;;
4650;SDS011;2338;49.602;8.722;2022-07-23T13:59:52;9.00;;;8.20;;
4650;SDS011;2338;49.602;8.722;2022-07-23T14:02:39;10.27;;;8.50;;
4650;SDS011;2338;49.602;8.722;2022-07-23T14:05:25;11.00;;;7.30;;
4650;SDS011;2338;49.602;8.722;2022-07-23T14:08:11;9.20;;;8.23;;
4650;SDS011;2338;49.602;8.722;2022-07-23T14:10:56;8.80;;;7.90;;
4650;SDS011;2338;49.602;8.722;2022-07-23T14:13:43;9.10;;;7.43;;
4650;SDS011;2338;49.602;8.722;2022-07-23T14:16:29;11.07;;;7.20;;
4650;SDS011;2338;49.602;8.722;2022-07-23T14:19:15;10.90;;;7.77;;
4650;SDS011;2338;49.602;8.722;2022-07-23T14:22:00;8.90;;;8.00;;
4650;SDS011;2338;49.602;8.722;2022-07-23T14:24:46;11.40;;;7.97;;
4650;SDS011;2338;49.602;8.722;2022-07-23T14:27:32;9.73;;;7.60;;
4650;SDS011;2338;49.602;8.722;2022-07-23T14:30:19;8.70;;;7.40;;
4650;SDS011;2338;49.602;8.722;2022-07-23T14:33:06;9.03;;;8.10;;
4650;SDS011;2338;49.602;8.722;2022-07-23T14:35:52;10.53;;;7.60;;
4650;SDS011;2338;49.602;8.722;2022-07-23T14:38:37;9.87;;;7.63;;
4650;SDS011;2338;49.602;8.722;2022-07-23T14:41:23;8.47;;;7.40;;
4650;SDS011;2338;49.602;8.722;2022-07-23T14:44:09;10.33;;;8.07;;
4650;SDS011;2338;49.602;8.722;2022-07-23T14:46:56;10.10;;;7.50;;
4650;SDS011;2338;49.602;8.722;2022-07-23T14:49:42;8.23;;;7.43;;
4650;SDS011;2338;49.602;8.722;2022-07-23T14:52:28;9.60;;;7.70;;
4650;SDS011;2338;49.602;8.722;2022-07-23T14:55:13;10.10;;;8.53;;
4650;SDS011;2338;49.602;8.722;2022-07-23T14:58:00;12.10;;;8.63;;
4650;SDS011;2338;49.602;8.722;2022-07-23T15:00:46;11.47;;;7.50;;
4650;SDS011;2338;49.602;8.722;2022-07-23T15:03:33;10.10;;;8.20;;
4650;SDS011;2338;49.602;8.722;2022-07-23T15:06:19;10.00;;;7.40;;
4650;SDS011;2338;49.602;8.722;2022-07-23T15:09:05;7.83;;;7.03;;
4650;SDS011;2338;49.602;8.722;2022-07-23T15:11:51;9.40;;;6.93;;
4650;SDS011;2338;49.602;8.722;2022-07-23T15:14:36;8.90;;;7.70;;
4650;SDS011;2338;49.602;8.722;2022-07-23T15:17:22;8.23;;;7.37;;
4650;SDS011;2338;49.602;8.722;2022-07-23T15:20:10;9.97;;;7.53;;
4650;SDS011;2338;49.602;8.722;2022-07-23T15:22:56;9.97;;;6.87;;
4650;SDS011;2338;49.602;8.722;2022-07-23T15:25:41;9.63;;;7.27;;
4650;SDS011;2338;49.602;8.722;2022-07-23T15:28:27;11.10;;;7.33;;
4650;SDS011;2338;49.602;8.722;2022-07-23T15:31:13;19.47;;;8.70;;
4650;SDS011;2338;49.602;8.722;2022-07-23T15:33:59;9.53;;;7.00;;
4650;SDS011;2338;49.602;8.722;2022-07-23T15:36:46;7.70;;;7.00;;
4650;SDS011;2338;49.602;8.722;2022-07-23T15:39:32;10.67;;;7.37;;
4650;SDS011;2338;49.602;8.722;2022-07-23T15:42:18;9.63;;;6.90;;
4650;SDS011;2338;49.602;8.722;2022-07-23T15:45:04;8.63;;;7.30;;
4650;SDS011;2338;49.602;8.722;2022-07-23T15:47:51;9.97;;;8.33;;
4650;SDS011;2338;49.602;8.722;2022-07-23T15:50:36;8.53;;;7.60;;
4650;SDS011;2338;49.602;8.722;2022-07-23T15:53:23;8.27;;;7.00;;
4650;SDS011;2338;49.602;8.722;2022-07-23T15:56:09;8.13;;;7.33;;
4650;SDS011;2338;49.602;8.722;2022-07-23T15:58:55;10.70;;;7.90;;
4650;SDS011;2338;49.602;8.722;2022-07-23T16:01:41;7.30;;;6.60;;
4650;SDS011;2338;49.602;8.722;2022-07-23T16:04:26;8.70;;;7.33;;
4650;SDS011;2338;49.602;8.722;2022-07-23T16:07:12;9.40;;;6.70;;
4650;SDS011;2338;49.602;8.722;2022-07-23T16:09:59;10.27;;;7.60;;
4650;SDS011;2338;49.602;8.722;2022-07-23T16:12:45;7.77;;;7.03;;
4650;SDS011;2338;49.602;8.722;2022-07-23T16:15:30;17.60;;;7.83;;
4650;SDS011;2338;49.602;8.722;2022-07-23T16:18:16;9.03;;;7.13;;
4650;SDS011;2338;49.602;8.722;2022-07-23T16:21:01;8.50;;;7.60;;
4650;SDS011;2338;49.602;8.722;2022-07-23T16:23:47;7.90;;;7.10;;
4650;SDS011;2338;49.602;8.722;2022-07-23T16:26:35;7.27;;;6.13;;
4650;SDS011;2338;49.602;8.722;2022-07-23T16:29:20;8.37;;;6.97;;
4650;SDS011;2338;49.602;8.722;2022-07-23T16:32:06;9.60;;;6.80;;
4650;SDS011;2338;49.602;8.722;2022-07-23T16:34:52;8.63;;;7.83;;
4650;SDS011;2338;49.602;8.722;2022-07-23T16:37:38;14.93;;;7.20;;
4650;SDS011;2338;49.602;8.722;2022-07-23T16:40:24;9.93;;;7.10;;
4650;SDS011;2338;49.602;8.722;2022-07-23T16:43:11;7.87;;;6.80;;
4650;SDS011;2338;49.602;8.722;2022-07-23T16:45:57;8.40;;;7.60;;
4650;SDS011;2338;49.602;8.722;2022-07-23T16:48:43;10.90;;;7.17;;
4650;SDS011;2338;49.602;8.722;2022-07-23T16:51:29;7.80;;;7.00;;
4650;SDS011;2338;49.602;8.722;2022-07-23T16:54:14;11.30;;;7.67;;
4650;SDS011;2338;49.602;8.722;2022-07-23T16:57:00;11.70;;;7.77;;
4650;SDS011;2338;49.602;8.722;2022-07-23T16:59:47;8.70;;;7.60;;
4650;SDS011;2338;49.602;8.722;2022-07-23T17:02:33;12.20;;;7.60;;
4650;SDS011;2338;49.602;8.722;2022-07-23T17:05:19;9.90;;;6.60;;
4650;SDS011;2338;49.602;8.722;2022-07-23T17:08:04;9.87;;;6.73;;
4650;SDS011;2338;49.602;8.722;2022-07-23T17:10:51;9.00;;;7.20;;
4650;SDS011;2338;49.602;8.722;2022-07-23T17:13:37;12.20;;;7.37;;
4650;SDS011;2338;49.602;8.722;2022-07-23T17:16:24;8.43;;;7.10;;
4650;SDS011;2338;49.602;8.722;2022-07-23T17:19:10;9.43;;;7.20;;
4650;SDS011;2338;49.602;8.722;2022-07-23T17:21:55;10.13;;;6.77;;
4650;SDS011;2338;49.602;8.722;2022-07-23T17:24:41;14.90;;;6.40;;